Terminal Aerodrome Forecast
Issued by NWS Melbourne, FL

Home | Current Version | Previous Version | Text Only | Print | Product List | Glossary On
Versions: 1 2 3 4 5 6 7 8 9 10 11 12 13 14 15 16 17 18 19 20 21 22 23 24 25
000
FTUS42 KMLB 191451 AAA
TAFMCO
TAF AMD
KMCO 191451Z 1915/2012 18010KT P6SM SCT035 SCT250
     FM192100 22012KT P6SM VCTS SCT040CB BKN250
     FM200000 28007KT P6SM FEW040 BKN250
     FM200800 19005KT P6SM SCT020 BKN100=

USA.gov is the U.S. government's official web portal to all federal, state and local government web resources and services.